Time;durP1;ratioP1;P1;durP2;ratioP2;P2;SDS_P1;SDS_P2;PMS_P1;PMS_P2;Temp;Humidity;BMP_temperature;BMP_pressure;BME280_temperature;BME280_humidity;BME280_pressure;Samples;Min_cycle;Max_cycle;Signal;HPM_P1;HPM_P2
2021/10/20 00:02:17;;;;;;;45.53;34.38;;;;;;;11.61;66.51;101921.25;4987448;28;20030;-76
2021/10/20 00:04:42;;;;;;;60.22;37.40;;;;;;;11.48;66.64;101919.25;4985133;28;20478;-72
2021/10/20 00:07:08;;;;;;;40.60;33.08;;;;;;;11.26;67.36;101918.81;4983648;28;20041;-74
2021/10/20 00:09:34;;;;;;;54.80;37.47;;;;;;;11.20;67.06;101923.91;4985807;28;20045;-74
2021/10/20 00:11:59;;;;;;;51.42;36.30;;;;;;;11.41;66.98;101908.59;4987175;28;20045;-72
2021/10/20 00:14:25;;;;;;;50.88;36.17;;;;;;;11.46;66.86;101905.19;4986522;28;20540;-72
2021/10/20 00:16:50;;;;;;;57.40;39.65;;;;;;;11.44;66.58;101912.16;4984645;28;20030;-71
2021/10/20 00:19:16;;;;;;;49.58;35.65;;;;;;;10.95;68.17;101891.84;4982947;28;20081;-73
2021/10/20 00:21:43;;;;;;;51.35;37.60;;;;;;;11.10;67.51;101887.81;4986955;28;20088;-71
2021/10/20 00:24:08;;;;;;;52.72;37.63;;;;;;;11.39;66.73;101889.28;4987024;28;20034;-72
2021/10/20 00:26:34;;;;;;;44.85;36.67;;;;;;;11.51;66.63;101887.75;4990113;28;20034;-73
2021/10/20 00:28:59;;;;;;;52.70;37.63;;;;;;;11.42;66.48;101885.81;4990076;28;20026;-74
2021/10/20 00:31:25;;;;;;;44.72;33.05;;;;;;;11.48;66.71;101887.72;4990565;28;20081;-73
2021/10/20 00:33:50;;;;;;;45.58;36.00;;;;;;;11.50;66.45;101886.88;4990860;28;20390;-73
2021/10/20 00:36:16;;;;;;;57.33;34.33;;;;;;;11.49;66.71;101873.69;4988505;28;20038;-74
2021/10/20 00:38:42;;;;;;;44.65;32.83;;;;;;;11.46;66.44;101857.88;4988356;28;20550;-71
2021/10/20 00:41:08;;;;;;;51.03;34.20;;;;;;;11.49;66.51;101868.44;4988763;28;20034;-72
2021/10/20 00:43:34;;;;;;;48.90;36.15;;;;;;;11.17;67.46;101876.56;4988764;28;20064;-74
2021/10/20 00:45:59;;;;;;;50.35;36.25;;;;;;;11.04;68.31;101864.03;5020762;28;20048;-74
2021/10/20 00:48:25;;;;;;;48.13;36.25;;;;;;;10.92;68.09;101869.91;4988233;28;20026;-71
2021/10/20 00:50:50;;;;;;;63.17;36.83;;;;;;;11.02;67.88;101871.84;4989789;28;20113;-72
2021/10/20 00:53:16;;;;;;;47.47;35.90;;;;;;;11.13;68.14;101872.09;4988792;28;20048;-73
2021/10/20 00:55:41;;;;;;;40.90;34.00;;;;;;;11.24;67.82;101873.22;4984240;28;20054;-74
2021/10/20 00:58:07;;;;;;;56.80;36.95;;;;;;;11.09;68.82;101872.88;4989745;28;20053;-72
2021/10/20 01:00:33;;;;;;;49.20;33.67;;;;;;;11.11;67.96;101864.19;4988494;28;20042;-74
2021/10/20 01:02:59;;;;;;;43.50;36.80;;;;;;;11.10;68.34;101861.53;4989408;28;20138;-74
2021/10/20 01:05:26;;;;;;;44.72;37.40;;;;;;;11.24;67.55;101856.53;4987936;28;20038;-73
2021/10/20 01:07:53;;;;;;;58.72;35.83;;;;;;;11.37;67.67;101845.44;4987647;28;20102;-72
2021/10/20 01:10:19;;;;;;;49.90;36.47;;;;;;;11.12;67.92;101847.56;4984839;28;20157;-74
2021/10/20 01:12:45;;;;;;;43.22;35.03;;;;;;;11.13;67.86;101859.84;4987713;28;20169;-70
2021/10/20 01:15:13;;;;;;;47.85;35.55;;;;;;;11.29;67.82;101866.31;5019437;28;20027;-73
2021/10/20 01:17:40;;;;;;;44.65;36.92;;;;;;;11.16;68.07;101849.38;4989937;28;20464;-73
2021/10/20 01:20:07;;;;;;;48.42;34.95;;;;;;;11.31;67.87;101842.69;4984272;28;20054;-74
2021/10/20 01:22:33;;;;;;;45.72;34.47;;;;;;;11.51;67.55;101856.22;4987865;28;20065;-75
2021/10/20 01:25:03;;;;;;;47.88;34.60;;;;;;;11.39;67.26;101836.72;4989451;28;20038;-74
2021/10/20 01:27:29;;;;;;;50.55;33.90;;;;;;;11.48;66.79;101835.16;4990438;28;20030;-73
2021/10/20 01:29:58;;;;;;;46.22;32.50;;;;;;;11.55;66.52;101851.06;4988318;28;20047;-73
2021/10/20 01:32:26;;;;;;;47.97;35.95;;;;;;;11.54;66.90;101845.75;4988931;28;20049;-73
2021/10/20 01:34:53;;;;;;;47.75;36.35;;;;;;;11.47;66.91;101836.91;4988511;28;20070;-73
2021/10/20 01:37:20;;;;;;;46.95;35.55;;;;;;;11.40;66.60;101854.28;4988718;28;20052;-73
2021/10/20 01:39:45;;;;;;;45.63;33.17;;;;;;;11.32;66.69;101853.22;4988281;28;20402;-73
2021/10/20 01:42:11;;;;;;;52.03;35.72;;;;;;;11.41;66.51;101855.16;4987243;28;20030;-73
2021/10/20 01:44:36;;;;;;;43.25;32.47;;;;;;;11.26;66.75;101842.63;4987640;28;20037;-73
2021/10/20 01:47:03;;;;;;;41.70;33.58;;;;;;;11.03;67.44;101836.88;4989453;28;20045;-72
2021/10/20 01:49:28;;;;;;;45.13;34.58;;;;;;;11.25;66.88;101832.06;4987316;28;20042;-74
2021/10/20 01:51:54;;;;;;;47.63;34.67;;;;;;;11.26;67.54;101852.22;4987659;28;20034;-73
2021/10/20 01:54:20;;;;;;;49.08;36.33;;;;;;;11.38;66.46;101857.75;4971744;28;20030;-74
2021/10/20 01:56:47;;;;;;;51.70;35.80;;;;;;;11.06;66.67;101844.81;4987148;28;20085;-73
2021/10/20 01:59:13;;;;;;;50.38;34.90;;;;;;;11.01;67.32;101835.97;4987792;28;20449;-75
2021/10/20 02:01:38;;;;;;;50.90;34.45;;;;;;;11.26;66.21;101849.59;4990926;28;20041;-74
2021/10/20 02:04:11;;;;;;;47.28;34.95;;;;;;;11.21;66.96;101857.38;4986949;28;20482;-73
2021/10/20 02:06:37;;;;;;;65.75;36.28;;;;;;;11.07;66.73;101841.31;4988172;28;20188;-74
2021/10/20 02:09:06;;;;;;;50.28;36.97;;;;;;;11.04;67.07;101843.88;4986895;28;20050;-72
2021/10/20 02:11:32;;;;;;;42.20;33.58;;;;;;;11.09;66.31;101838.72;4989966;28;20140;-74
2021/10/20 02:13:58;;;;;;;41.50;34.58;;;;;;;11.01;66.84;101838.56;4986495;28;20473;-71
2021/10/20 02:16:23;;;;;;;45.88;31.65;;;;;;;11.15;67.20;101846.75;5019847;28;20486;-76
2021/10/20 02:18:49;;;;;;;46.42;37.58;;;;;;;11.29;66.28;101847.03;4982299;28;20421;-75
2021/10/20 02:21:16;;;;;;;44.92;34.70;;;;;;;11.04;66.57;101829.88;5017592;28;20098;-73
2021/10/20 02:23:41;;;;;;;44.60;35.25;;;;;;;10.99;66.52;101837.66;4986346;28;20034;-73
2021/10/20 02:26:07;;;;;;;53.83;36.75;;;;;;;10.74;67.51;101828.34;4986304;28;20113;-72
2021/10/20 02:28:33;;;;;;;48.63;33.30;;;;;;;11.05;67.51;101842.13;4988613;28;20506;-74
2021/10/20 02:30:58;;;;;;;42.47;33.90;;;;;;;11.07;67.17;101835.19;4989470;28;20500;-71
2021/10/20 02:33:24;;;;;;;53.33;35.95;;;;;;;11.15;67.03;101849.38;4986569;28;20053;-75
2021/10/20 02:35:50;;;;;;;56.28;35.60;;;;;;;11.10;66.69;101830.91;4985268;28;20042;-73
2021/10/20 02:38:15;;;;;;;50.03;35.13;;;;;;;11.10;66.87;101832.66;4989487;28;20050;-76
2021/10/20 02:40:41;;;;;;;43.28;34.67;;;;;;;10.97;66.92;101831.47;4987412;28;20358;-75
2021/10/20 02:43:06;;;;;;;45.45;33.95;;;;;;;10.98;67.17;101831.53;4986525;28;20069;-75
2021/10/20 02:45:32;;;;;;;48.40;33.53;;;;;;;11.09;66.53;101839.63;4986677;28;20406;-72
2021/10/20 02:47:57;;;;;;;55.08;34.08;;;;;;;11.03;66.50;101823.75;4987799;28;20522;-75
2021/10/20 02:50:23;;;;;;;49.45;34.90;;;;;;;11.01;66.87;101841.22;4986453;28;20200;-75
2021/10/20 02:52:48;;;;;;;46.60;36.22;;;;;;;11.15;66.50;101839.75;4988992;28;20041;-74
2021/10/20 02:55:14;;;;;;;48.90;35.03;;;;;;;11.13;65.94;101836.19;4986411;28;20034;-73
2021/10/20 02:57:40;;;;;;;49.58;32.80;;;;;;;11.12;66.36;101844.94;4987372;28;20046;-74
2021/10/20 03:00:06;;;;;;;38.92;31.95;;;;;;;11.12;66.21;101839.69;4987122;28;20516;-73
2021/10/20 03:02:31;;;;;;;52.63;35.83;;;;;;;11.06;66.24;101834.31;4987411;28;20052;-73
2021/10/20 03:04:57;;;;;;;44.97;35.58;;;;;;;10.99;66.63;101838.53;4984235;28;20494;-73
2021/10/20 03:07:22;;;;;;;49.42;36.55;;;;;;;10.76;67.64;101835.41;4986760;28;20034;-72
2021/10/20 03:09:47;;;;;;;49.83;35.47;;;;;;;10.88;67.46;101849.66;4986041;28;20026;-72
2021/10/20 03:12:13;;;;;;;61.33;37.10;;;;;;;10.98;67.42;101841.16;4986489;28;20126;-73
2021/10/20 03:14:38;;;;;;;52.05;38.03;;;;;;;10.85;67.40;101841.72;4985493;28;20069;-73
2021/10/20 03:17:04;;;;;;;47.15;35.80;;;;;;;10.63;67.93;101828.13;4984193;28;20037;-74
2021/10/20 03:19:29;;;;;;;60.22;36.47;;;;;;;10.74;67.53;101846.72;4982841;28;20046;-73
2021/10/20 03:21:55;;;;;;;52.20;34.67;;;;;;;10.53;67.60;101834.00;4985685;28;20030;-72
2021/10/20 03:24:21;;;;;;;45.25;34.90;;;;;;;10.60;67.97;101837.66;4987247;28;20405;-72
2021/10/20 03:26:46;;;;;;;60.00;36.75;;;;;;;10.79;67.46;101837.22;5000369;28;20074;-75
2021/10/20 03:29:12;;;;;;;51.08;34.83;;;;;;;10.73;67.11;101819.59;4986513;28;20084;-72
2021/10/20 03:31:37;;;;;;;53.67;33.15;;;;;;;10.85;66.78;101834.72;4988115;28;20034;-74
2021/10/20 03:34:03;;;;;;;43.70;32.53;;;;;;;10.78;66.99;101832.81;4986186;28;20046;-73
2021/10/20 03:36:29;;;;;;;63.17;36.85;;;;;;;10.60;67.76;101828.03;4986395;28;20109;-73
2021/10/20 03:38:54;;;;;;;45.20;37.13;;;;;;;10.48;67.96;101831.28;4987148;28;20452;-73
2021/10/20 03:41:20;;;;;;;47.70;35.60;;;;;;;10.41;68.49;101815.34;4983938;28;20034;-75
2021/10/20 03:43:45;;;;;;;45.33;34.22;;;;;;;10.58;68.30;101840.25;4985918;28;20045;-73
2021/10/20 03:46:11;;;;;;;46.50;34.13;;;;;;;10.77;67.51;101831.06;4988114;28;20049;-72
2021/10/20 03:48:36;;;;;;;45.17;33.13;;;;;;;10.95;66.75;101841.06;4986635;28;20680;-73
2021/10/20 03:51:03;;;;;;;45.03;38.33;;;;;;;10.76;66.84;101831.91;4987320;28;20085;-74
2021/10/20 03:53:29;;;;;;;47.85;36.75;;;;;;;10.49;68.02;101825.19;4988655;28;20124;-74
2021/10/20 03:55:54;;;;;;;46.08;36.70;;;;;;;10.66;67.50;101841.31;4985064;28;20105;-73
2021/10/20 03:58:21;;;;;;;50.40;39.42;;;;;;;10.57;68.22;101844.59;4985714;28;20030;-73
2021/10/20 04:00:47;;;;;;;48.40;38.42;;;;;;;10.72;67.82;101833.59;4982680;28;20579;-72
2021/10/20 04:03:12;;;;;;;45.20;36.40;;;;;;;10.65;68.64;101836.03;4992235;28;20030;-73
2021/10/20 04:05:38;;;;;;;47.53;37.35;;;;;;;10.55;68.46;101819.19;4989913;28;20062;-74
2021/10/20 04:08:03;;;;;;;47.00;37.55;;;;;;;10.64;68.14;101832.50;4986392;28;20037;-72
2021/10/20 04:10:29;;;;;;;53.83;38.17;;;;;;;10.44;68.66;101818.94;4991774;28;20117;-70
2021/10/20 04:12:55;;;;;;;54.55;39.13;;;;;;;10.76;67.68;101845.91;4991288;28;20032;-73
2021/10/20 04:15:23;;;;;;;53.53;34.90;;;;;;;10.91;67.68;101839.22;4990912;28;20116;-74
2021/10/20 04:17:49;;;;;;;50.72;37.85;;;;;;;10.56;68.45;101836.72;4989139;28;20506;-74
2021/10/20 04:20:17;;;;;;;53.17;39.03;;;;;;;10.55;68.15;101827.94;4979549;28;20085;-72
2021/10/20 04:22:43;;;;;;;59.10;38.55;;;;;;;10.69;68.34;101843.13;4987011;28;20487;-74
2021/10/20 04:25:09;;;;;;;51.40;36.65;;;;;;;10.69;67.94;101833.50;4988510;28;20508;-74
2021/10/20 04:27:35;;;;;;;48.58;37.30;;;;;;;11.03;67.46;101851.72;4990088;28;20038;-74
2021/10/20 04:30:01;;;;;;;51.63;37.88;;;;;;;10.95;67.82;101841.06;4983575;28;20128;-73
2021/10/20 04:32:27;;;;;;;46.60;39.13;;;;;;;10.86;67.28;101843.50;5005058;28;20038;-73
2021/10/20 04:34:54;;;;;;;57.13;40.05;;;;;;;10.75;67.25;101835.41;4988239;28;20030;-70
2021/10/20 04:37:25;;;;;;;53.33;38.97;;;;;;;10.36;68.89;101828.38;4987554;28;20124;-73
2021/10/20 04:39:57;;;;;;;48.78;39.10;;;;;;;10.41;69.00;101831.09;4991955;28;20026;-73
2021/10/20 04:42:23;;;;;;;53.35;39.13;;;;;;;10.51;68.63;101838.31;4987522;28;20476;-73
2021/10/20 04:44:49;;;;;;;57.17;41.17;;;;;;;10.80;68.09;101848.63;4989664;28;20037;-73
2021/10/20 04:47:15;;;;;;;50.50;38.60;;;;;;;10.56;69.21;101832.34;4989533;28;20034;-74
2021/10/20 04:49:42;;;;;;;58.70;41.10;;;;;;;10.70;68.43;101840.53;4990855;28;20049;-74
2021/10/20 04:52:07;;;;;;;61.42;43.05;;;;;;;10.90;66.85;101824.31;4989568;28;20038;-74
2021/10/20 04:54:33;;;;;;;75.28;41.10;;;;;;;10.72;67.87;101845.81;4990499;28;20046;-73
2021/10/20 04:56:58;;;;;;;51.47;37.00;;;;;;;10.51;68.45;101830.44;4988563;28;20638;-73
2021/10/20 04:59:24;;;;;;;59.25;43.03;;;;;;;10.75;67.43;101845.91;4989573;28;20042;-73
2021/10/20 05:01:49;;;;;;;59.80;40.08;;;;;;;10.80;67.40;101841.63;4989395;28;20034;-74
2021/10/20 05:04:15;;;;;;;60.45;41.83;;;;;;;10.82;67.93;101839.03;4988243;28;20061;-74
2021/10/20 05:06:40;;;;;;;53.67;40.08;;;;;;;10.79;67.22;101842.47;4989057;28;20478;-74
2021/10/20 05:09:06;;;;;;;54.17;36.72;;;;;;;10.94;67.71;101852.44;4991590;28;20567;-73
2021/10/20 05:11:31;;;;;;;55.22;42.40;;;;;;;10.93;67.67;101846.31;4989116;28;20113;-74
2021/10/20 05:13:57;;;;;;;56.53;40.92;;;;;;;10.97;67.54;101842.00;4989047;28;20768;-74
2021/10/20 05:16:22;;;;;;;55.20;42.42;;;;;;;11.05;66.76;101843.06;4988700;28;20045;-75
2021/10/20 05:18:48;;;;;;;49.85;39.28;;;;;;;10.74;68.53;101846.72;4983934;28;20791;-74
2021/10/20 05:21:13;;;;;;;60.80;42.40;;;;;;;10.84;68.16;101851.34;4989423;28;20084;-69
2021/10/20 05:23:39;;;;;;;50.50;41.20;;;;;;;11.00;68.22;101836.78;5025895;28;20041;-73
2021/10/20 05:26:04;;;;;;;52.97;42.28;;;;;;;11.05;67.47;101850.94;4988439;28;20026;-75
2021/10/20 05:28:30;;;;;;;64.53;42.72;;;;;;;11.16;67.10;101844.13;4991227;28;20022;-75
2021/10/20 05:30:55;;;;;;;56.85;41.85;;;;;;;11.07;68.07;101857.06;4987871;28;20148;-75
2021/10/20 05:33:20;;;;;;;52.50;42.60;;;;;;;11.20;67.78;101859.13;4989067;28;20038;-74
2021/10/20 05:35:47;;;;;;;65.57;42.15;;;;;;;11.27;67.86;101860.13;4989091;28;20038;-72
2021/10/20 05:38:13;;;;;;;61.38;41.92;;;;;;;11.44;65.90;101844.69;5004375;28;20104;-74
2021/10/20 05:40:38;;;;;;;59.25;45.13;;;;;;;11.54;66.03;101859.81;4994038;28;20463;-75
2021/10/20 05:43:04;;;;;;;56.42;43.83;;;;;;;11.51;66.55;101866.72;4997167;28;20118;-74
2021/10/20 05:45:29;;;;;;;69.70;44.47;;;;;;;11.59;67.18;101866.03;4996344;28;20425;-73
2021/10/20 05:47:55;;;;;;;64.20;40.20;;;;;;;11.67;66.37;101874.06;4990474;28;20104;-74
2021/10/20 05:50:20;;;;;;;58.55;43.58;;;;;;;11.80;65.20;101873.44;4990484;28;20026;-75
2021/10/20 05:52:46;;;;;;;62.70;41.25;;;;;;;11.86;65.45;101858.63;4987843;28;20585;-75
2021/10/20 05:55:12;;;;;;;49.72;39.15;;;;;;;11.94;65.63;101857.03;4988063;28;20042;-75
2021/10/20 05:57:38;;;;;;;65.55;41.05;;;;;;;12.11;65.07;101867.88;4988266;28;20026;-75
2021/10/20 06:00:10;;;;;;;45.95;37.47;;;;;;;11.82;65.37;101874.38;4988249;28;20065;-75
2021/10/20 06:02:36;;;;;;;45.63;37.05;;;;;;;11.69;66.31;101871.47;4988064;28;20061;-69
2021/10/20 06:05:03;;;;;;;49.85;34.30;;;;;;;11.98;65.70;101865.00;4986223;28;20513;-72
2021/10/20 06:07:29;;;;;;;61.85;35.83;;;;;;;11.75;66.65;101872.47;4987827;28;20037;-73
2021/10/20 06:09:55;;;;;;;55.85;37.00;;;;;;;11.95;66.29;101887.75;4987791;28;20042;-74
2021/10/20 06:12:22;;;;;;;50.75;36.00;;;;;;;11.74;66.36;101875.06;4987633;28;20727;-74
2021/10/20 06:14:48;;;;;;;46.63;36.00;;;;;;;11.85;65.77;101881.41;4987792;28;20033;-74
2021/10/20 06:17:14;;;;;;;54.97;37.03;;;;;;;11.81;66.45;101885.72;4987585;28;20477;-76
2021/10/20 06:19:39;;;;;;;50.92;37.00;;;;;;;11.54;67.24;101872.97;4984501;28;20046;-75
2021/10/20 06:22:05;;;;;;;47.45;36.80;;;;;;;11.96;65.77;101886.91;4987401;28;20034;-75
2021/10/20 06:24:30;;;;;;;46.38;36.05;;;;;;;11.61;65.19;101885.38;4987292;28;20655;-75
2021/10/20 06:26:56;;;;;;;54.22;35.78;;;;;;;11.41;67.16;101884.06;4988936;28;20026;-75
2021/10/20 06:29:23;;;;;;;41.20;36.17;;;;;;;11.49;67.94;101876.34;4970457;28;20034;-74
2021/10/20 06:31:48;;;;;;;53.80;37.15;;;;;;;11.94;66.28;101881.63;4988482;28;20038;-75
2021/10/20 06:34:14;;;;;;;66.60;36.72;;;;;;;11.77;65.54;101883.00;4988269;28;20089;-75
2021/10/20 06:36:41;;;;;;;44.83;35.53;;;;;;;12.01;65.51;101893.13;4988009;28;20867;-77
2021/10/20 06:39:07;;;;;;;46.88;35.55;;;;;;;11.98;65.63;101891.31;4987306;28;20382;-76
2021/10/20 06:41:32;;;;;;;57.08;35.60;;;;;;;12.36;63.92;101877.03;4987411;28;20061;-75
2021/10/20 06:43:58;;;;;;;50.78;36.78;;;;;;;12.17;64.86;101881.13;4988460;28;20046;-71
2021/10/20 06:46:23;;;;;;;44.42;36.05;;;;;;;12.49;63.87;101886.94;4985360;28;20057;-73
2021/10/20 06:48:49;;;;;;;51.05;37.28;;;;;;;12.79;62.66;101888.25;4986400;28;20192;-77
2021/10/20 06:51:15;;;;;;;72.22;36.35;;;;;;;13.05;62.00;101889.50;4993880;28;20128;-74
2021/10/20 06:53:40;;;;;;;49.28;34.03;;;;;;;13.17;61.55;101890.53;4993889;28;20042;-73
2021/10/20 06:56:09;;;;;;;50.30;34.35;;;;;;;12.96;62.79;101886.75;4986637;28;20046;-78
2021/10/20 06:58:35;;;;;;;44.95;34.58;;;;;;;13.08;61.42;101886.03;4986880;28;20046;-73
2021/10/20 07:01:01;;;;;;;39.78;30.70;;;;;;;12.83;61.77;101866.34;4986405;28;20504;-73
2021/10/20 07:03:27;;;;;;;73.13;29.23;;;;;;;13.02;61.23;101886.84;4985945;28;20034;-72
2021/10/20 07:05:52;;;;;;;43.08;30.23;;;;;;;12.82;61.87;101893.56;4985857;28;20100;-73
2021/10/20 07:08:17;;;;;;;38.92;31.88;;;;;;;12.77;61.66;101887.34;4986757;28;20042;-82
2021/10/20 07:10:43;;;;;;;52.13;37.88;;;;;;;12.72;61.82;101895.19;4988215;28;20663;-73
2021/10/20 07:13:09;;;;;;;42.90;28.48;;;;;;;12.86;61.76;101887.50;4986758;28;20531;-78
2021/10/20 07:15:34;;;;;;;43.22;30.00;;;;;;;13.40;61.02;101889.09;4983061;28;22205;-71
2021/10/20 07:18:00;;;;;;;40.63;32.30;;;;;;;12.58;62.19;101896.72;4982168;28;20081;-75
2021/10/20 07:20:25;;;;;;;42.53;31.98;;;;;;;13.32;61.05;101887.25;4986003;28;20153;-80
2021/10/20 07:22:52;;;;;;;47.50;30.50;;;;;;;13.43;59.37;101886.50;4982267;28;20066;-76
2021/10/20 07:25:18;;;;;;;43.28;30.05;;;;;;;13.72;59.42;101892.13;4990668;28;20026;-71
2021/10/20 07:27:45;;;;;;;43.10;32.80;;;;;;;13.87;58.11;101885.25;4992775;28;20041;-74
2021/10/20 07:30:11;;;;;;;39.22;32.25;;;;;;;13.93;58.25;101882.66;4987715;28;20121;-77
2021/10/20 07:32:39;;;;;;;40.30;32.10;;;;;;;14.19;57.78;101889.91;4986620;28;20042;-72
2021/10/20 07:35:06;;;;;;;50.28;32.22;;;;;;;14.36;57.91;101886.56;4985637;28;20441;-71
2021/10/20 07:37:31;;;;;;;43.55;36.30;;;;;;;14.49;57.79;101881.38;4986137;28;20060;-82
2021/10/20 07:39:57;;;;;;;43.47;36.92;;;;;;;14.49;58.40;101884.91;4986940;28;20777;-71
2021/10/20 07:42:24;;;;;;;47.65;37.85;;;;;;;14.49;57.67;101884.00;4985452;28;20046;-74
2021/10/20 07:44:49;;;;;;;45.67;34.70;;;;;;;14.66;57.14;101871.84;4985912;28;20037;-74
2021/10/20 07:47:16;;;;;;;50.38;33.67;;;;;;;14.36;58.16;101876.00;4985901;28;20030;-75
2021/10/20 07:49:41;;;;;;;51.15;35.15;;;;;;;14.79;57.16;101880.72;5009794;28;20461;-73
2021/10/20 07:52:07;;;;;;;49.72;34.58;;;;;;;14.97;56.54;101878.19;4988342;28;20049;-74
2021/10/20 07:54:33;;;;;;;42.40;35.10;;;;;;;14.96;55.72;101870.25;4969153;28;20422;-75
2021/10/20 07:56:58;;;;;;;51.38;37.55;;;;;;;15.14;56.34;101875.63;4986430;28;20046;-75
2021/10/20 07:59:24;;;;;;;48.95;36.15;;;;;;;15.20;54.87;101882.72;4986500;28;20494;-73
2021/10/20 08:01:50;;;;;;;47.40;37.08;;;;;;;15.13;55.66;101865.94;4981795;28;20545;-77
2021/10/20 08:04:16;;;;;;;51.08;34.08;;;;;;;15.26;55.43;101874.81;4985938;28;20684;-78
2021/10/20 08:06:42;;;;;;;45.03;37.40;;;;;;;15.57;55.17;101875.81;4985194;28;20038;-79
2021/10/20 08:09:07;;;;;;;63.85;35.58;;;;;;;15.78;54.99;101877.66;4985129;28;20070;-71
2021/10/20 08:11:33;;;;;;;48.40;37.67;;;;;;;15.57;54.19;101872.28;4983757;28;20285;-75
2021/10/20 08:13:58;;;;;;;53.40;37.00;;;;;;;15.32;55.63;101874.84;4983926;28;20038;-71
2021/10/20 08:16:24;;;;;;;57.67;35.80;;;;;;;14.90;55.73;101870.22;4975181;28;20045;-74
2021/10/20 08:18:49;;;;;;;66.18;37.58;;;;;;;15.00;56.42;101882.63;4982124;28;20065;-69
2021/10/20 08:21:15;;;;;;;42.88;34.45;;;;;;;15.54;55.72;101880.19;4985836;28;20116;-72
2021/10/20 08:23:44;;;;;;;50.95;38.47;;;;;;;15.66;55.36;101876.72;4985740;28;20046;-71
2021/10/20 08:26:10;;;;;;;41.30;35.53;;;;;;;15.10;55.68;101878.25;4985704;28;20089;-72
2021/10/20 08:28:35;;;;;;;51.72;35.78;;;;;;;15.22;56.07;101866.84;4985969;28;20042;-73
2021/10/20 08:31:01;;;;;;;43.30;34.95;;;;;;;15.37;56.16;101873.09;4986380;28;20037;-73
2021/10/20 08:33:27;;;;;;;59.63;34.72;;;;;;;15.68;55.06;101869.66;4985765;28;20114;-74
2021/10/20 08:35:53;;;;;;;57.92;35.50;;;;;;;15.99;53.72;101868.88;4986654;28;20037;-76
2021/10/20 08:38:18;;;;;;;47.75;33.55;;;;;;;15.83;53.98;101881.19;4990395;28;20075;-71
2021/10/20 08:40:47;;;;;;;47.90;33.03;;;;;;;15.89;54.27;101872.38;4985889;28;20085;-76
2021/10/20 08:43:18;;;;;;;42.70;32.47;;;;;;;16.16;54.04;101866.22;4985627;28;20034;-74
2021/10/20 08:45:45;;;;;;;43.80;35.63;;;;;;;15.99;54.51;101873.25;4986060;28;20049;-73
2021/10/20 08:48:18;;;;;;;51.45;36.42;;;;;;;15.73;54.92;101855.59;4989530;28;20038;-72
2021/10/20 08:50:45;;;;;;;;;;;;;;;16.29;54.58;101863.56;4999779;28;20033;-76
2021/10/20 08:53:10;;;;;;;41.00;32.45;;;;;;;16.48;53.09;101851.19;4993798;28;19949;-72
2021/10/20 08:55:36;;;;;;;42.20;33.53;;;;;;;16.46;53.01;101854.75;4989179;28;20065;-72
2021/10/20 08:58:01;;;;;;;38.90;31.50;;;;;;;16.51;52.96;101857.38;4989487;28;20721;-77
2021/10/20 09:00:28;;;;;;;39.33;31.95;;;;;;;16.72;52.65;101863.53;4989539;28;20121;-73
2021/10/20 09:02:54;;;;;;;37.00;29.30;;;;;;;16.59;52.17;101849.41;4989054;28;20057;-73
2021/10/20 09:05:22;;;;;;;35.20;30.23;;;;;;;16.79;51.75;101845.00;4989973;28;20470;-72
2021/10/20 09:07:51;;;;;;;38.63;28.75;;;;;;;16.68;51.11;101858.22;4988792;28;20042;-78
2021/10/20 09:10:17;;;;;;;35.40;27.88;;;;;;;17.03;52.09;101856.41;4995661;28;20073;-72
2021/10/20 09:12:43;;;;;;;49.17;27.55;;;;;;;17.00;51.00;101854.66;4989668;28;20038;-76
2021/10/20 09:15:21;;;;;;;41.05;30.98;;;;;;;17.08;51.39;101846.66;5002039;28;20054;-77
2021/10/20 09:17:50;;;;;;;40.72;31.73;;;;;;;16.75;52.22;101845.84;4988615;28;20344;-73
2021/10/20 09:20:21;;;;;;;42.33;31.98;;;;;;;16.92;52.72;101844.94;4984602;28;20046;-71
2021/10/20 09:23:17;;;;;;;35.80;29.00;;;;;;;17.26;51.17;101849.25;4980367;28;20528;-71
2021/10/20 09:25:57;;;;;;;35.55;30.17;;;;;;;17.34;50.95;101841.25;4981112;28;20383;-76
2021/10/20 09:28:22;;;;;;;63.03;46.60;;;;;;;17.06;51.74;101833.41;4980910;28;20402;-74
2021/10/20 09:30:48;;;;;;;45.30;30.70;;;;;;;16.73;52.71;101829.06;4988777;28;20038;-77
2021/10/20 09:33:14;;;;;;;36.38;28.58;;;;;;;17.22;52.69;101833.34;4989073;28;20034;-73
2021/10/20 09:35:41;;;;;;;36.05;28.13;;;;;;;17.35;50.97;101832.41;4988298;28;20030;-82
2021/10/20 09:38:07;;;;;;;38.38;30.63;;;;;;;17.45;50.58;101823.50;4988305;28;20108;-72
2021/10/20 09:40:43;;;;;;;46.88;29.75;;;;;;;17.54;50.64;101824.34;4987306;28;20037;-77
2021/10/20 09:43:12;;;;;;;29.67;25.90;;;;;;;17.37;51.52;101827.06;4992283;28;20486;-75
2021/10/20 09:45:40;;;;;;;39.38;27.15;;;;;;;17.04;51.59;101823.69;4999318;28;20099;-73
2021/10/20 09:48:18;;;;;;;36.33;25.05;;;;;;;17.29;51.81;101817.38;4988643;28;20061;-76
2021/10/20 09:51:06;;;;;;;37.60;28.55;;;;;;;17.56;52.34;101820.78;4986893;28;20405;-77
2021/10/20 09:53:34;;;;;;;52.60;29.88;;;;;;;17.06;52.45;101806.00;4988168;28;20030;-77
2021/10/20 09:56:27;;;;;;;45.42;27.55;;;;;;;17.55;51.84;101791.59;5018183;28;20076;-75
2021/10/20 09:58:53;;;;;;;32.55;27.23;;;;;;;17.61;52.03;101812.78;4985374;28;20181;-73
2021/10/20 10:01:27;;;;;;;32.67;27.67;;;;;;;17.66;51.84;101811.84;4988294;28;20044;-75
2021/10/20 10:03:56;;;;;;;40.50;26.88;;;;;;;17.42;52.27;101804.94;4988096;28;20038;-75
2021/10/20 10:06:22;;;;;;;39.83;29.42;;;;;;;17.85;52.11;101806.44;4987977;28;20126;-75
2021/10/20 10:08:48;;;;;;;35.05;29.50;;;;;;;16.92;54.20;101803.41;4989732;28;20113;-73
2021/10/20 10:11:14;;;;;;;46.20;30.42;;;;;;;17.40;54.31;101797.88;4987951;28;20895;-75
2021/10/20 10:13:47;;;;;;;33.80;29.50;;;;;;;17.56;53.66;101788.94;4987453;28;20077;-75
2021/10/20 10:16:14;;;;;;;38.50;26.35;;;;;;;17.54;53.60;101797.81;4986079;28;20114;-76
2021/10/20 10:18:41;;;;;;;35.03;27.02;;;;;;;18.19;52.88;101801.75;4984360;28;20089;-86
2021/10/20 10:21:37;;;;;;;34.20;26.60;;;;;;;18.45;50.80;101796.16;4990200;28;20062;-72
2021/10/20 10:24:10;;;;;;;32.00;28.05;;;;;;;18.77;51.77;101797.59;4985830;28;20164;-72
2021/10/20 10:26:37;;;;;;;32.15;25.77;;;;;;;18.63;50.94;101795.06;4975322;28;20034;-75
2021/10/20 10:29:13;;;;;;;37.70;25.17;;;;;;;17.99;51.49;101775.34;4988800;28;20034;-75
2021/10/20 10:31:44;;;;;;;37.95;23.85;;;;;;;17.96;51.79;101780.69;4988444;28;20038;-74
2021/10/20 10:34:25;;;;;;;38.97;27.15;;;;;;;18.52;51.24;101794.34;4987357;28;20092;-72
2021/10/20 10:36:53;;;;;;;31.50;25.60;;;;;;;18.93;51.02;101785.00;4985392;28;20057;-75
2021/10/20 10:39:18;;;;;;;32.30;25.38;;;;;;;18.29;51.22;101776.84;4983953;28;20018;-70
2021/10/20 10:41:53;;;;;;;29.90;25.98;;;;;;;17.90;51.87;101772.75;4987196;28;20057;-73
2021/10/20 10:44:21;;;;;;;29.75;23.10;;;;;;;17.61;52.50;101757.94;5001024;28;20038;-71
2021/10/20 10:47:27;;;;;;;26.63;22.10;;;;;;;18.68;50.78;101756.03;5000892;28;20030;-73
2021/10/20 10:49:57;;;;;;;27.20;23.73;;;;;;;18.60;50.89;101760.56;4971864;28;20066;-71
2021/10/20 10:52:41;;;;;;;26.42;22.63;;;;;;;19.11;50.24;101741.31;4986192;28;20036;-74
2021/10/20 10:55:20;;;;;;;30.60;22.67;;;;;;;19.46;49.13;101758.56;4985082;28;20113;-70
2021/10/20 10:57:53;;;;;;;32.35;23.05;;;;;;;19.37;49.36;101749.78;4985545;28;20497;-74
2021/10/20 11:00:19;;;;;;;;;;;;;;;19.53;48.29;101758.44;4984664;28;20038;-73
2021/10/20 11:02:59;;;;;;;25.10;20.45;;;;;;;19.18;48.41;101740.34;4986896;28;19924;-71
2021/10/20 11:05:32;;;;;;;26.65;22.50;;;;;;;19.42;48.78;101743.53;4987458;28;20057;-73
2021/10/20 11:08:10;;;;;;;;;;;;;;;18.78;49.74;101743.53;4987172;28;20029;-79
2021/10/20 11:10:38;;;;;;;27.08;21.80;;;;;;;18.91;49.89;101730.94;4988141;28;19927;-72